USSS 180930Z 34008MPS 9999 -SHRA SCT050CB 17/12 Q1006 R26L/290050 TEMPO -TSRA RMK QFE734/0979
QNH:(hPa/inHg/mmHg)1006 / 29.71 / 755
QFE:(hPa/inHg/mmHg)978 / 28.87 / 733
Temperature17
Dew Point12
Visibility> 10000
WeatherLight Showers Rain;Light Thunderstorm Rain
Cloud CoverSCT (5000);
Transition Altitude4000 ft.
Transition LevelFL60
SQUAWK